createdAt,value
2022-10-19T00:01:11.885Z,11.77
2022-10-19T00:03:42.344Z,12.93
2022-10-19T00:06:15.810Z,12.90
2022-10-19T00:08:44.477Z,12.73
2022-10-19T00:11:13.211Z,13.30
2022-10-19T00:13:41.400Z,14.47
2022-10-19T00:16:11.786Z,13.63
2022-10-19T00:18:43.290Z,11.53
2022-10-19T00:21:13.277Z,12.70
2022-10-19T00:23:41.971Z,14.83
2022-10-19T00:26:10.135Z,17.27
2022-10-19T00:28:38.379Z,13.63
2022-10-19T00:31:07.817Z,15.10
2022-10-19T00:33:35.941Z,12.87
2022-10-19T00:36:05.966Z,13.77
2022-10-19T00:38:34.026Z,13.60
2022-10-19T00:41:03.299Z,12.83
2022-10-19T00:43:32.440Z,12.33
2022-10-19T00:46:00.525Z,13.93
2022-10-19T00:48:31.119Z,12.50
2022-10-19T00:51:00.681Z,14.83
2022-10-19T00:53:31.836Z,16.40
2022-10-19T00:56:03.842Z,13.37
2022-10-19T00:58:32.587Z,13.93
2022-10-19T01:01:03.882Z,14.80
2022-10-19T01:03:31.952Z,13.83
2022-10-19T01:06:00.948Z,14.70
2022-10-19T01:08:30.381Z,15.60
2022-10-19T01:11:11.544Z,14.63
2022-10-19T01:13:48.208Z,12.73
2022-10-19T01:16:24.438Z,11.60
2022-10-19T01:18:59.285Z,13.80
2022-10-19T01:21:35.222Z,13.83
2022-10-19T01:24:39.838Z,15.10
2022-10-19T01:27:41.088Z,12.50
2022-10-19T01:30:15.657Z,12.80
2022-10-19T01:32:55.529Z,14.37
2022-10-19T01:35:32.949Z,13.27
2022-10-19T01:38:11.516Z,13.23
2022-10-19T01:40:45.865Z,12.40
2022-10-19T01:43:22.903Z,17.67
2022-10-19T01:45:56.320Z,13.80
2022-10-19T01:48:29.977Z,14.20
2022-10-19T01:51:01.843Z,17.93
2022-10-19T01:53:35.044Z,15.40
2022-10-19T01:56:05.733Z,17.40
2022-10-19T01:58:37.865Z,21.23
2022-10-19T02:03:41.305Z,14.13
2022-10-19T02:06:12.613Z,20.50
2022-10-19T02:08:44.586Z,21.70
2022-10-19T02:11:12.776Z,27.47
2022-10-19T02:13:42.218Z,32.23
2022-10-19T02:16:17.415Z,32.50
2022-10-19T02:18:48.053Z,33.53
2022-10-19T02:21:16.607Z,38.57
2022-10-19T02:23:45.073Z,39.63
2022-10-19T02:26:13.182Z,31.80
2022-10-19T02:28:41.382Z,46.07
2022-10-19T02:31:11.069Z,33.27
2022-10-19T02:33:39.606Z,32.80
2022-10-19T02:36:08.141Z,35.00
2022-10-19T02:38:36.288Z,30.33
2022-10-19T02:41:09.535Z,39.47
2022-10-19T02:43:42.015Z,43.00
2022-10-19T02:46:16.987Z,35.47
2022-10-19T02:48:46.185Z,40.80
2022-10-19T02:51:31.987Z,39.27
2022-10-19T02:54:02.680Z,39.23
2022-10-19T02:56:33.413Z,32.90
2022-10-19T02:59:01.427Z,39.13
2022-10-19T03:01:30.806Z,35.30
2022-10-19T03:03:58.840Z,34.70
2022-10-19T03:06:26.806Z,41.60
2022-10-19T03:08:54.784Z,47.53
2022-10-19T03:11:22.790Z,41.93
2022-10-19T03:13:50.758Z,39.37
2022-10-19T03:16:18.809Z,45.80
2022-10-19T03:18:49.042Z,46.77
2022-10-19T03:21:17.505Z,46.43
2022-10-19T03:23:45.492Z,44.63
2022-10-19T03:26:15.788Z,47.40
2022-10-19T03:28:43.795Z,50.70
2022-10-19T03:31:11.874Z,45.47
2022-10-19T03:33:39.910Z,43.10
2022-10-19T03:36:21.645Z,37.87
2022-10-19T03:38:51.488Z,43.50
2022-10-19T03:41:19.562Z,31.70
2022-10-19T03:43:47.744Z,37.43
2022-10-19T03:46:16.191Z,33.90
2022-10-19T03:48:44.760Z,32.73
2022-10-19T03:51:16.455Z,31.43
2022-10-19T03:53:45.127Z,31.60
2022-10-19T03:56:16.238Z,32.10
2022-10-19T03:58:45.801Z,31.30
2022-10-19T04:01:16.142Z,35.97
2022-10-19T04:03:44.721Z,31.20
2022-10-19T04:06:19.592Z,26.93
2022-10-19T04:08:50.562Z,26.60
2022-10-19T04:11:21.481Z,30.97
2022-10-19T04:13:50.219Z,27.30
2022-10-19T04:16:19.192Z,30.10
2022-10-19T04:18:47.207Z,29.50
2022-10-19T04:21:24.320Z,28.60
2022-10-19T04:23:53.618Z,28.40
2022-10-19T04:26:22.328Z,33.73
2022-10-19T04:28:50.500Z,24.27
2022-10-19T04:31:18.554Z,19.80
2022-10-19T04:36:21.010Z,22.47
2022-10-19T04:38:48.993Z,24.07
2022-10-19T04:41:19.331Z,23.77
2022-10-19T04:43:47.908Z,24.90
2022-10-19T04:46:18.335Z,26.73
2022-10-19T04:48:48.068Z,27.33
2022-10-19T04:51:16.877Z,23.03
2022-10-19T04:53:46.656Z,22.33
2022-10-19T04:56:17.642Z,22.90
2022-10-19T04:58:46.514Z,21.53
2022-10-19T05:01:16.724Z,23.07
2022-10-19T05:03:45.203Z,27.13
2022-10-19T05:06:14.912Z,25.73
2022-10-19T05:08:43.170Z,27.93
2022-10-19T05:11:15.777Z,30.40
2022-10-19T05:13:44.393Z,23.60
2022-10-19T05:16:14.459Z,23.60
2022-10-19T05:18:42.552Z,25.67
2022-10-19T05:21:12.655Z,24.00
2022-10-19T05:23:41.509Z,24.17
2022-10-19T05:26:12.880Z,21.43
2022-10-19T05:28:41.015Z,19.47
2022-10-19T05:31:10.934Z,22.20
2022-10-19T05:33:39.353Z,19.67
2022-10-19T05:36:19.163Z,20.20
2022-10-19T05:38:49.119Z,19.87
2022-10-19T05:41:18.779Z,20.23
2022-10-19T05:43:47.718Z,22.73
2022-10-19T05:46:18.559Z,26.40
2022-10-19T05:48:47.601Z,20.67
2022-10-19T05:51:18.071Z,20.90
2022-10-19T05:53:46.724Z,22.27
2022-10-19T05:56:16.552Z,21.20
2022-10-19T05:58:45.992Z,19.17
2022-10-19T06:01:14.960Z,21.13
2022-10-19T06:03:46.526Z,29.93
2022-10-19T06:06:14.953Z,22.90
2022-10-19T06:08:42.965Z,25.00
2022-10-19T06:11:13.027Z,20.30
2022-10-19T06:13:42.765Z,19.63
2022-10-19T06:16:13.640Z,20.90
2022-10-19T06:18:42.942Z,22.63
2022-10-19T06:21:16.889Z,20.40
2022-10-19T06:23:45.092Z,20.83
2022-10-19T06:26:15.102Z,33.20
2022-10-19T06:28:44.379Z,18.10
2022-10-19T06:31:15.048Z,18.97
2022-10-19T06:33:45.972Z,18.57
2022-10-19T06:36:20.082Z,19.90
2022-10-19T06:38:48.612Z,17.37
2022-10-19T06:41:17.221Z,16.53
2022-10-19T06:43:45.201Z,18.37
2022-10-19T06:46:20.325Z,19.83
2022-10-19T06:48:52.324Z,18.83
2022-10-19T06:51:20.774Z,16.07
2022-10-19T06:53:51.686Z,14.00
2022-10-19T06:56:25.030Z,18.63
2022-10-19T06:58:53.181Z,16.97
2022-10-19T07:01:23.193Z,18.77
2022-10-19T07:03:52.035Z,17.03
2022-10-19T07:06:20.623Z,13.20
2022-10-19T07:08:49.118Z,14.43
2022-10-19T07:11:19.264Z,17.57
2022-10-19T07:13:47.330Z,15.50
2022-10-19T07:16:20.575Z,18.77
2022-10-19T07:18:52.520Z,14.20
2022-10-19T07:21:22.590Z,16.30
2022-10-19T07:23:51.014Z,18.77
2022-10-19T07:26:21.487Z,20.87
2022-10-19T07:28:50.139Z,15.63
2022-10-19T07:31:21.119Z,15.30
2022-10-19T07:33:53.652Z,14.47
2022-10-19T07:36:21.859Z,14.90
2022-10-19T07:38:49.987Z,15.47
2022-10-19T07:41:20.101Z,21.37
2022-10-19T07:43:49.469Z,13.80
2022-10-19T07:46:18.812Z,12.47
2022-10-19T07:48:47.436Z,11.90
2022-10-19T07:51:18.511Z,10.63
2022-10-19T07:53:47.258Z,7.57
2022-10-19T07:56:17.596Z,9.53
2022-10-19T07:58:46.190Z,11.33
2022-10-19T08:01:16.396Z,10.20
2022-10-19T08:06:34.481Z,8.50
2022-10-19T08:09:02.445Z,8.57
2022-10-19T08:11:32.564Z,9.80
2022-10-19T08:14:02.894Z,12.43
2022-10-19T08:16:33.867Z,9.53
2022-10-19T08:19:04.606Z,10.03
2022-10-19T08:21:34.061Z,11.50
2022-10-19T08:24:02.130Z,12.27
2022-10-19T08:26:30.438Z,8.97
2022-10-19T08:29:01.291Z,8.40
2022-10-19T08:31:29.948Z,7.23
2022-10-19T08:33:58.256Z,9.03
2022-10-19T08:36:27.625Z,8.43
2022-10-19T08:38:57.165Z,9.80
2022-10-19T08:41:33.869Z,10.57
2022-10-19T08:44:24.273Z,7.97
2022-10-19T08:47:02.493Z,9.53
2022-10-19T08:49:32.807Z,7.13
2022-10-19T08:52:05.179Z,10.23
2022-10-19T08:57:27.668Z,9.73
2022-10-19T09:00:00.805Z,10.43
2022-10-19T09:02:44.413Z,7.63
2022-10-19T09:05:21.875Z,6.80
2022-10-19T09:07:53.128Z,8.40
2022-10-19T09:10:27.545Z,7.97
2022-10-19T09:12:59.838Z,7.97
2022-10-19T09:15:33.675Z,6.77
2022-10-19T09:18:02.736Z,7.63
2022-10-19T09:20:36.020Z,6.73
2022-10-19T09:23:13.365Z,11.00
2022-10-19T09:25:43.336Z,7.90
2022-10-19T09:28:31.559Z,7.30
2022-10-19T09:31:05.415Z,7.87
2022-10-19T09:33:36.869Z,10.33
2022-10-19T09:36:07.926Z,8.40
2022-10-19T09:38:36.256Z,7.00
2022-10-19T09:41:19.263Z,8.10
2022-10-19T09:43:53.675Z,7.47
2022-10-19T09:46:38.652Z,8.47
2022-10-19T09:49:07.165Z,8.40
2022-10-19T09:51:47.067Z,6.03
2022-10-19T09:54:26.568Z,6.83
2022-10-19T09:56:57.363Z,6.90
2022-10-19T09:59:29.770Z,6.30
2022-10-19T10:02:15.355Z,6.70
2022-10-19T10:04:47.499Z,9.03
2022-10-19T10:07:18.547Z,7.47
2022-10-19T10:09:46.906Z,6.60
2022-10-19T10:12:17.386Z,8.10
2022-10-19T10:14:46.350Z,6.80
2022-10-19T10:17:19.032Z,5.70
2022-10-19T10:20:06.218Z,7.00
2022-10-19T10:22:36.860Z,5.00
2022-10-19T10:25:14.673Z,4.57
2022-10-19T10:27:54.559Z,5.80
2022-10-19T10:30:22.700Z,5.13
2022-10-19T10:32:53.032Z,4.57
2022-10-19T10:35:24.240Z,4.77
2022-10-19T10:37:53.664Z,5.20
2022-10-19T10:40:27.763Z,10.00
2022-10-19T10:43:02.938Z,5.83
2022-10-19T10:45:34.385Z,4.23
2022-10-19T10:48:17.781Z,4.60
2022-10-19T10:50:47.049Z,3.73
2022-10-19T10:53:33.880Z,4.80
2022-10-19T10:56:02.480Z,5.13
2022-10-19T10:58:39.970Z,4.23
2022-10-19T11:01:16.804Z,4.33
2022-10-19T11:03:51.987Z,5.10
2022-10-19T11:09:04.365Z,4.50
2022-10-19T11:11:38.015Z,5.10
2022-10-19T11:14:32.972Z,5.07
2022-10-19T11:17:06.493Z,4.17
2022-10-19T11:19:37.686Z,4.50
2022-10-19T11:22:17.639Z,5.50
2022-10-19T11:24:56.285Z,4.13
2022-10-19T11:27:36.471Z,3.97
2022-10-19T11:30:11.492Z,5.10
2022-10-19T11:32:57.163Z,3.67
2022-10-19T11:35:46.994Z,5.00
2022-10-19T11:38:31.985Z,3.50
2022-10-19T11:41:24.635Z,4.30
2022-10-19T11:44:17.351Z,3.43
2022-10-19T11:46:58.759Z,3.73
2022-10-19T11:49:38.463Z,4.27
2022-10-19T11:52:13.544Z,5.70
2022-10-19T11:54:54.604Z,4.40
2022-10-19T11:57:26.729Z,4.57
2022-10-19T12:00:14.181Z,6.80
2022-10-19T12:03:14.733Z,3.83
2022-10-19T12:06:03.992Z,3.73
2022-10-19T12:08:50.138Z,4.47
2022-10-19T12:11:29.068Z,5.20
2022-10-19T12:14:01.913Z,6.23
2022-10-19T12:16:38.220Z,3.80
2022-10-19T12:19:13.285Z,4.77
2022-10-19T12:21:43.842Z,4.30
2022-10-19T12:24:16.947Z,4.17
2022-10-19T12:26:47.687Z,4.37
2022-10-19T12:29:20.520Z,7.43
2022-10-19T12:31:50.244Z,4.87
2022-10-19T12:34:32.953Z,3.90
2022-10-19T12:37:07.616Z,5.00
2022-10-19T12:39:43.177Z,4.03
2022-10-19T12:42:21.154Z,4.77
2022-10-19T12:45:14.800Z,7.63
2022-10-19T12:48:21.304Z,5.43
2022-10-19T12:51:17.945Z,4.90
2022-10-19T12:53:49.403Z,6.80
2022-10-19T12:56:21.827Z,5.30
2022-10-19T12:58:56.559Z,6.40
2022-10-19T13:01:28.224Z,4.83
2022-10-19T13:04:10.028Z,5.60
2022-10-19T13:06:43.726Z,5.60
2022-10-19T13:09:27.276Z,5.13
2022-10-19T13:12:30.862Z,4.60
2022-10-19T13:14:59.855Z,7.53
2022-10-19T13:17:43.859Z,5.00
2022-10-19T13:20:49.563Z,4.53
2022-10-19T13:23:39.700Z,5.57
2022-10-19T13:26:31.680Z,4.77
2022-10-19T13:28:59.943Z,6.53
2022-10-19T13:31:29.695Z,4.97
2022-10-19T13:33:58.407Z,5.73
2022-10-19T13:36:27.302Z,5.00
2022-10-19T13:39:16.366Z,4.57
2022-10-19T13:41:53.402Z,6.13
2022-10-19T13:44:26.455Z,4.40
2022-10-19T13:47:29.527Z,4.90
2022-10-19T13:50:20.474Z,4.70
2022-10-19T13:53:13.190Z,4.70
2022-10-19T13:56:07.118Z,4.10
2022-10-19T13:59:05.993Z,3.77
2022-10-19T14:01:49.046Z,4.53
2022-10-19T14:04:25.900Z,4.53
2022-10-19T14:06:58.255Z,4.37
2022-10-19T14:09:45.359Z,4.90
2022-10-19T14:12:22.195Z,4.60
2022-10-19T14:14:53.406Z,3.90
2022-10-19T14:17:24.620Z,5.83
2022-10-19T14:19:54.403Z,4.00
2022-10-19T14:22:26.910Z,3.90
2022-10-19T14:25:02.277Z,5.53
2022-10-19T14:27:32.685Z,4.10
2022-10-19T14:30:01.318Z,4.53
2022-10-19T14:32:30.542Z,4.17
2022-10-19T14:37:33.061Z,4.40
2022-10-19T14:40:05.799Z,4.20
2022-10-19T14:42:40.292Z,4.30
2022-10-19T14:45:15.206Z,6.00
2022-10-19T14:47:54.479Z,4.53
2022-10-19T14:50:26.714Z,3.70
2022-10-19T14:52:59.674Z,4.00
2022-10-19T14:55:35.927Z,5.33
2022-10-19T14:58:13.467Z,4.60
2022-10-19T15:00:42.405Z,7.00
2022-10-19T15:03:13.848Z,4.30
2022-10-19T15:05:48.758Z,4.30
2022-10-19T15:08:28.234Z,4.97
2022-10-19T15:10:56.370Z,6.13
2022-10-19T15:13:30.026Z,5.17
2022-10-19T15:15:58.125Z,6.40
2022-10-19T15:18:48.159Z,4.47
2022-10-19T15:21:21.699Z,5.73
2022-10-19T15:23:50.685Z,4.60
2022-10-19T15:26:21.597Z,5.20
2022-10-19T15:28:51.622Z,4.80
2022-10-19T15:31:22.533Z,6.87
2022-10-19T15:33:52.357Z,5.90
2022-10-19T15:36:21.938Z,5.30
2022-10-19T15:39:11.497Z,4.90
2022-10-19T15:41:48.352Z,5.17
2022-10-19T15:44:41.708Z,6.20
2022-10-19T15:47:27.759Z,5.87
2022-10-19T15:49:59.571Z,4.63
2022-10-19T15:52:29.183Z,5.30
2022-10-19T15:54:58.963Z,5.80
2022-10-19T15:57:30.278Z,6.57
2022-10-19T16:00:01.386Z,5.33
2022-10-19T16:02:29.526Z,6.23
2022-10-19T16:04:57.621Z,6.33
2022-10-19T16:07:27.933Z,5.57
2022-10-19T16:09:56.137Z,6.70
2022-10-19T16:12:26.261Z,5.80
2022-10-19T16:14:54.472Z,6.87
2022-10-19T16:17:24.067Z,5.57
2022-10-19T16:19:52.600Z,6.40
2022-10-19T16:22:20.748Z,6.17
2022-10-19T16:24:48.764Z,6.13
2022-10-19T16:27:17.101Z,7.47
2022-10-19T16:29:45.630Z,6.67
2022-10-19T16:32:13.691Z,7.77
2022-10-19T16:34:43.226Z,6.40
2022-10-19T16:37:11.201Z,6.57
2022-10-19T16:39:39.379Z,6.83
2022-10-19T16:42:07.370Z,7.30
2022-10-19T16:44:35.492Z,7.90
2022-10-19T16:47:04.108Z,7.73
2022-10-19T16:49:32.264Z,8.50
2022-10-19T16:52:01.687Z,7.30
2022-10-19T16:54:30.725Z,8.30
2022-10-19T16:56:58.714Z,7.90
2022-10-19T16:59:26.690Z,7.03
2022-10-19T17:01:54.778Z,7.30
2022-10-19T17:04:22.893Z,9.10
2022-10-19T17:06:51.085Z,8.00
2022-10-19T17:09:40.931Z,8.77
2022-10-19T17:12:09.835Z,8.23
2022-10-19T17:14:39.621Z,8.70
2022-10-19T17:17:07.762Z,8.87
2022-10-19T17:19:36.597Z,10.57
2022-10-19T17:22:05.514Z,9.30
2022-10-19T17:24:35.193Z,9.10
2022-10-19T17:27:03.911Z,10.30
2022-10-19T17:29:32.009Z,10.40
2022-10-19T17:32:00.439Z,9.27
2022-10-19T17:34:28.594Z,10.20
2022-10-19T17:36:56.653Z,11.43
2022-10-19T17:39:29.073Z,11.90
2022-10-19T17:42:02.019Z,10.03
2022-10-19T17:44:31.785Z,11.13
2022-10-19T17:47:01.237Z,12.40
2022-10-19T17:49:30.398Z,13.00
2022-10-19T17:51:58.646Z,13.33
2022-10-19T17:54:26.837Z,11.13
2022-10-19T17:56:55.245Z,10.63
2022-10-19T17:59:34.609Z,12.87
2022-10-19T18:02:04.026Z,9.80
2022-10-19T18:04:32.139Z,10.93
2022-10-19T18:07:00.170Z,16.40
2022-10-19T18:09:28.176Z,14.40
2022-10-19T18:11:56.245Z,10.93
2022-10-19T18:14:25.650Z,11.10
2022-10-19T18:16:53.819Z,12.00
2022-10-19T18:19:21.850Z,20.70
2022-10-19T18:21:49.910Z,12.70
2022-10-19T18:24:21.316Z,10.67
2022-10-19T18:26:50.399Z,10.13
2022-10-19T18:29:21.471Z,11.17
2022-10-19T18:31:52.761Z,10.33
2022-10-19T18:34:22.785Z,13.10
2022-10-19T18:36:50.864Z,11.63
2022-10-19T18:39:19.808Z,11.20
2022-10-19T18:41:51.748Z,9.43
2022-10-19T18:44:25.216Z,11.37
2022-10-19T18:46:57.451Z,10.80
2022-10-19T18:49:25.654Z,9.90
2022-10-19T18:51:55.528Z,14.77
2022-10-19T18:54:24.603Z,10.93
2022-10-19T18:56:52.619Z,10.87
2022-10-19T18:59:21.018Z,10.63
2022-10-19T19:01:52.169Z,10.77
2022-10-19T19:04:21.789Z,11.53
2022-10-19T19:06:49.841Z,14.37
2022-10-19T19:09:18.927Z,12.50
2022-10-19T19:11:47.113Z,11.63
2022-10-19T19:14:17.766Z,13.00
2022-10-19T19:16:46.817Z,13.37
2022-10-19T19:19:16.855Z,12.63
2022-10-19T19:21:46.559Z,13.30
2022-10-19T19:24:16.826Z,11.10
2022-10-19T19:26:48.447Z,10.13
2022-10-19T19:29:17.251Z,11.20
2022-10-19T19:31:45.828Z,12.10
2022-10-19T19:34:14.302Z,9.93
2022-10-19T19:36:47.283Z,9.50
2022-10-19T19:39:19.957Z,9.77
2022-10-19T19:41:48.559Z,9.67
2022-10-19T19:44:16.687Z,9.50
2022-10-19T19:46:44.747Z,10.03
2022-10-19T19:49:12.899Z,11.23
2022-10-19T19:51:43.333Z,9.60
2022-10-19T19:54:11.482Z,10.27
2022-10-19T19:56:42.349Z,12.13
2022-10-19T19:59:12.456Z,11.70
2022-10-19T20:01:40.629Z,10.33
2022-10-19T20:04:09.559Z,11.33
2022-10-19T20:06:39.366Z,11.20
2022-10-19T20:09:09.001Z,13.00
2022-10-19T20:11:42.061Z,15.27
2022-10-19T20:14:12.189Z,13.33
2022-10-19T20:16:40.224Z,13.33
2022-10-19T20:19:10.802Z,14.03
2022-10-19T20:21:39.653Z,10.83
2022-10-19T20:24:10.808Z,13.33
2022-10-19T20:26:39.372Z,13.40
2022-10-19T20:29:07.672Z,12.80
2022-10-19T20:31:40.315Z,14.53
2022-10-19T20:34:10.778Z,13.63
2022-10-19T20:36:38.862Z,16.03
2022-10-19T20:39:07.216Z,14.93
2022-10-19T20:41:35.460Z,15.03
2022-10-19T20:44:03.704Z,15.90
2022-10-19T20:46:32.546Z,15.93
2022-10-19T20:49:02.982Z,14.80
2022-10-19T20:51:32.941Z,14.83
2022-10-19T20:54:02.449Z,13.43
2022-10-19T20:56:32.978Z,14.00
2022-10-19T21:01:38.588Z,15.00
2022-10-19T21:04:10.156Z,14.77
2022-10-19T21:06:40.343Z,15.00
2022-10-19T21:09:09.576Z,13.97
2022-10-19T21:11:39.585Z,14.73
2022-10-19T21:14:09.836Z,14.13
2022-10-19T21:16:38.629Z,14.43
2022-10-19T21:19:11.878Z,16.10
2022-10-19T21:21:42.639Z,15.30
2022-10-19T21:24:13.782Z,16.50
2022-10-19T21:26:42.078Z,14.27
2022-10-19T21:29:11.179Z,15.10
2022-10-19T21:31:43.044Z,15.40
2022-10-19T21:34:17.736Z,15.30
2022-10-19T21:36:45.757Z,13.87
2022-10-19T21:39:14.349Z,16.10
2022-10-19T21:41:42.918Z,16.07
2022-10-19T21:44:11.058Z,17.57
2022-10-19T21:46:39.202Z,21.90
2022-10-19T21:49:07.273Z,16.20
2022-10-19T21:51:38.803Z,15.43
2022-10-19T21:56:43.717Z,16.83
2022-10-19T21:59:12.687Z,16.20
2022-10-19T22:01:41.869Z,15.43
2022-10-19T22:04:17.419Z,15.57
2022-10-19T22:06:47.109Z,19.20
2022-10-19T22:09:17.392Z,15.87
2022-10-19T22:11:46.017Z,17.87
2022-10-19T22:14:15.723Z,18.33
2022-10-19T22:16:44.153Z,17.80
2022-10-19T22:19:12.927Z,17.17
2022-10-19T22:21:41.685Z,25.50
2022-10-19T22:24:13.888Z,16.93
2022-10-19T22:26:43.785Z,17.13
2022-10-19T22:29:12.509Z,16.97
2022-10-19T22:31:40.851Z,16.93
2022-10-19T22:34:11.527Z,16.80
2022-10-19T22:36:40.053Z,16.10
2022-10-19T22:39:08.278Z,14.43
2022-10-19T22:41:37.525Z,16.33
2022-10-19T22:44:05.992Z,18.87
2022-10-19T22:46:34.083Z,18.03
2022-10-19T22:49:02.115Z,17.53
2022-10-19T22:51:30.239Z,15.30
2022-10-19T22:53:58.314Z,17.80
2022-10-19T22:56:26.457Z,15.00
2022-10-19T22:58:59.293Z,15.37
2022-10-19T23:01:27.386Z,15.37
2022-10-19T23:03:56.034Z,18.57
2022-10-19T23:06:24.069Z,15.93
2022-10-19T23:08:52.446Z,15.13
2022-10-19T23:11:22.551Z,16.10
2022-10-19T23:13:50.626Z,19.23
2022-10-19T23:16:20.012Z,15.97
2022-10-19T23:18:48.058Z,15.20
2022-10-19T23:21:16.630Z,16.23
2022-10-19T23:23:44.634Z,16.57
2022-10-19T23:26:14.472Z,16.03
2022-10-19T23:28:44.749Z,14.10
2022-10-19T23:31:14.965Z,15.67
2022-10-19T23:33:45.088Z,13.77
2022-10-19T23:36:15.663Z,19.20
2022-10-19T23:38:44.857Z,16.07
2022-10-19T23:41:13.893Z,17.43
2022-10-19T23:43:42.572Z,17.57
2022-10-19T23:46:10.653Z,17.97
2022-10-19T23:48:39.030Z,20.63
2022-10-19T23:51:09.825Z,15.60
2022-10-19T23:53:41.284Z,15.90
2022-10-19T23:56:11.607Z,17.60
2022-10-19T23:58:39.676Z,17.50
